Time,TemperatureF,DewpointF,PressureIn,WindDirection,WindDirectionDegrees,WindSpeedMPH,WindSpeedGustMPH,Humidity,HourlyPrecipIn,Conditions,Clouds,dailyrainin,SolarRadiationWatts/m^2,SoftwareType,DateUTC
2013-01-12 00:13:00,2.7,-6.0,29.90,WNW,298,0.0,4.0,67,0.00,,,0.00,0,weatherlink.com 1.10,2013-01-12 07:13:00,
2013-01-12 00:28:00,1.8,-6.0,29.91,ENE,70,0.0,3.0,69,0.00,,,0.00,0,weatherlink.com 1.10,2013-01-12 07:28:00,
2013-01-12 00:43:00,1.6,-6.0,29.92,SSW,200,0.0,1.0,70,0.00,,,0.00,0,weatherlink.com 1.10,2013-01-12 07:43:00,
2013-01-12 00:58:00,1.1,-6.0,29.91,WSW,248,0.0,2.0,71,0.00,,,0.00,0,weatherlink.com 1.10,2013-01-12 07:58:00,
2013-01-12 01:13:00,0.6,-6.0,29.92,ESE,110,0.0,1.0,73,0.00,,,0.00,0,weatherlink.com 1.10,2013-01-12 08:13:00,
2013-01-12 01:28:00,-0.1,-7.0,29.92,ENE,78,0.0,0.0,73,0.00,,,0.00,0,weatherlink.com 1.10,2013-01-12 08:28:00,
2013-01-12 01:43:00,-1.0,-7.0,29.93,East,96,0.0,0.0,75,0.00,,,0.00,0,weatherlink.com 1.10,2013-01-12 08:43:00,
2013-01-12 01:58:00,-1.7,-8.0,29.94,East,96,0.0,1.0,76,0.00,,,0.00,0,weatherlink.com 1.10,2013-01-12 08:58:00,
2013-01-12 02:13:00,-1.2,-7.0,29.95,East,82,0.0,2.0,77,0.00,,,0.00,0,weatherlink.com 1.10,2013-01-12 09:13:00,
2013-01-12 02:28:00,-1.0,-7.0,29.96,East,84,0.0,2.0,77,0.00,,,0.00,0,weatherlink.com 1.10,2013-01-12 09:28:00,
2013-01-12 02:43:00,-1.7,-7.0,29.96,ENE,71,0.0,2.0,77,0.00,,,0.00,0,weatherlink.com 1.10,2013-01-12 09:43:00,
2013-01-12 02:58:00,-1.0,-7.0,29.96,ESE,122,1.0,3.0,76,0.00,,,0.00,0,weatherlink.com 1.10,2013-01-12 09:58:00,
2013-01-12 03:13:00,-1.0,-7.0,29.98,East,93,1.0,2.0,75,0.00,,,0.00,0,weatherlink.com 1.10,2013-01-12 10:13:00,
2013-01-12 03:29:00,-0.8,-7.0,29.99,East,87,0.0,2.0,74,0.00,,,0.00,0,weatherlink.com 1.10,2013-01-12 10:29:00,
2013-01-12 03:44:00,-0.9,-8.0,29.99,East,101,0.0,1.0,73,0.00,,,0.00,0,weatherlink.com 1.10,2013-01-12 10:44:00,
2013-01-12 03:59:00,-1.9,-9.0,29.99,ESE,105,0.0,1.0,73,0.00,,,0.00,0,weatherlink.com 1.10,2013-01-12 10:59:00,
2013-01-12 04:14:00,-2.3,-9.0,30.00,NNE,18,0.0,1.0,74,0.00,,,0.00,0,weatherlink.com 1.10,2013-01-12 11:14:00,
2013-01-12 04:29:00,-2.1,-9.0,29.99,ESE,108,1.0,2.0,74,0.00,,,0.00,0,weatherlink.com 1.10,2013-01-12 11:29:00,
2013-01-12 04:44:00,-1.1,-9.0,30.00,ESE,102,0.0,2.0,69,0.00,,,0.00,0,weatherlink.com 1.10,2013-01-12 11:44:00,
2013-01-12 04:59:00,-2.1,-10.0,30.00,East,99,0.0,1.0,70,0.00,,,0.00,0,weatherlink.com 1.10,2013-01-12 11:59:00,
2013-01-12 05:14:00,-2.4,-10.0,30.01,East,99,0.0,0.0,70,0.00,,,0.00,0,weatherlink.com 1.10,2013-01-12 12:14:00,
2013-01-12 05:29:00,-1.7,-10.0,30.02,East,99,0.0,0.0,67,0.00,,,0.00,0,weatherlink.com 1.10,2013-01-12 12:29:00,
2013-01-12 05:44:00,-2.9,-11.0,30.03,East,93,0.0,0.0,67,0.00,,,0.00,0,weatherlink.com 1.10,2013-01-12 12:44:00,
2013-01-12 05:59:00,-3.0,-12.0,30.05,East,93,0.0,0.0,65,0.00,,,0.00,0,weatherlink.com 1.10,2013-01-12 12:59:00,
2013-01-12 06:14:00,-3.0,-12.0,30.06,East,93,0.0,0.0,64,0.00,,,0.00,0,weatherlink.com 1.10,2013-01-12 13:14:00,
2013-01-12 06:29:00,-3.8,-13.0,30.07,East,93,0.0,0.0,65,0.00,,,0.00,0,weatherlink.com 1.10,2013-01-12 13:29:00,
2013-01-12 06:45:00,-4.6,-13.0,30.09,East,93,0.0,0.0,68,0.00,,,0.00,0,weatherlink.com 1.10,2013-01-12 13:45:00,
2013-01-12 07:00:00,-5.1,-13.0,30.10,East,93,0.0,0.0,69,0.00,,,0.00,0,weatherlink.com 1.10,2013-01-12 14:00:00,
2013-01-12 07:15:00,-4.6,-12.0,30.12,East,93,0.0,0.0,70,0.00,,,0.00,5,weatherlink.com 1.10,2013-01-12 14:15:00,
2013-01-12 07:30:00,-4.6,-12.0,30.13,East,93,0.0,0.0,71,0.00,,,0.00,9,weatherlink.com 1.10,2013-01-12 14:30:00,
2013-01-12 07:45:00,-4.5,-12.0,30.13,East,93,0.0,0.0,69,0.00,,,0.00,11,weatherlink.com 1.10,2013-01-12 14:45:00,
2013-01-12 08:00:00,-5.0,-13.0,30.14,East,93,0.0,0.0,68,0.00,,,0.00,12,weatherlink.com 1.10,2013-01-12 15:00:00,
2013-01-12 08:15:00,-4.3,-13.0,30.15,East,93,0.0,0.0,66,0.00,,,0.00,14,weatherlink.com 1.10,2013-01-12 15:15:00,
2013-01-12 08:30:00,-3.5,-13.0,30.16,East,93,0.0,0.0,63,0.00,,,0.00,16,weatherlink.com 1.10,2013-01-12 15:30:00,
2013-01-12 08:45:00,-2.4,-13.0,30.17,East,93,0.0,0.0,61,0.00,,,0.00,32,weatherlink.com 1.10,2013-01-12 15:45:00,
2013-01-12 09:00:00,-0.5,-12.0,30.18,East,93,0.0,0.0,59,0.00,,,0.00,58,weatherlink.com 1.10,2013-01-12 16:00:00,
2013-01-12 09:15:00,1.0,-9.0,30.18,East,95,0.0,0.0,62,0.00,,,0.00,132,weatherlink.com 1.10,2013-01-12 16:15:00,
2013-01-12 09:30:00,2.5,-8.0,30.18,ESE,103,0.0,0.0,61,0.00,,,0.00,88,weatherlink.com 1.10,2013-01-12 16:30:00,
2013-01-12 09:45:00,0.8,-10.0,30.18,ESE,103,0.0,0.0,61,0.00,,,0.00,49,weatherlink.com 1.10,2013-01-12 16:45:00,
2013-01-12 10:00:00,1.6,-9.0,30.18,ESE,103,0.0,1.0,60,0.00,,,0.00,51,weatherlink.com 1.10,2013-01-12 17:00:00,
2013-01-12 10:16:00,5.0,-10.0,30.18,ESE,103,0.0,1.0,51,0.00,,,0.00,46,weatherlink.com 1.10,2013-01-12 17:16:00,
2013-01-12 10:31:00,7.2,-9.0,30.18,West,271,0.0,3.0,47,0.00,,,0.00,53,weatherlink.com 1.10,2013-01-12 17:31:00,
2013-01-12 10:46:00,8.7,-10.0,30.18,West,265,1.0,2.0,43,0.00,,,0.00,413,weatherlink.com 1.10,2013-01-12 17:46:00,
2013-01-12 11:01:00,10.6,-9.0,30.17,North,360,0.0,4.0,40,0.00,,,0.00,418,weatherlink.com 1.10,2013-01-12 18:01:00,
2013-01-12 11:16:00,10.8,-9.0,30.16,North,360,0.0,3.0,40,0.00,,,0.00,557,weatherlink.com 1.10,2013-01-12 18:16:00,
2013-01-12 11:31:00,11.0,-11.0,30.15,North,360,0.0,2.0,37,0.00,,,0.00,578,weatherlink.com 1.10,2013-01-12 18:31:00,
2013-01-12 11:46:00,12.1,-10.0,30.14,North,360,0.0,3.0,36,0.00,,,0.00,594,weatherlink.com 1.10,2013-01-12 18:46:00,
2013-01-12 12:01:00,12.1,-9.0,30.13,North,360,0.0,4.0,39,0.00,,,0.00,599,weatherlink.com 1.10,2013-01-12 19:01:00,
2013-01-12 12:16:00,12.0,-10.0,30.13,North,360,1.0,3.0,37,0.00,,,0.00,606,weatherlink.com 1.10,2013-01-12 19:16:00,
2013-01-12 12:31:00,13.0,-10.0,30.12,North,360,1.0,4.0,35,0.00,,,0.00,606,weatherlink.com 1.10,2013-01-12 19:31:00,
2013-01-12 12:46:00,12.5,-10.0,30.12,WNW,298,0.0,4.0,36,0.00,,,0.00,605,weatherlink.com 1.10,2013-01-12 19:46:00,
2013-01-12 13:01:00,11.8,-10.0,30.12,North,360,1.0,3.0,37,0.00,,,0.00,596,weatherlink.com 1.10,2013-01-12 20:01:00,
2013-01-12 13:16:00,12.4,-7.0,30.12,WNW,295,4.0,4.0,42,0.00,,,0.00,113,weatherlink.com 1.10,2013-01-12 20:16:00,
2013-01-12 13:32:00,12.1,-10.0,30.12,SSW,213,4.0,5.0,36,0.00,,,0.00,167,weatherlink.com 1.10,2013-01-12 20:32:00,
2013-01-12 13:47:00,12.2,-12.0,30.11,SW,225,0.0,4.0,33,0.00,,,0.00,185,weatherlink.com 1.10,2013-01-12 20:47:00,
2013-01-12 14:02:00,12.1,-10.0,30.12,West,263,1.0,4.0,37,0.00,,,0.00,304,weatherlink.com 1.10,2013-01-12 21:02:00,
2013-01-12 14:17:00,11.8,-12.0,30.12,WSW,245,2.0,4.0,34,0.00,,,0.00,139,weatherlink.com 1.10,2013-01-12 21:17:00,
2013-01-12 14:32:00,11.6,-12.0,30.13,West,276,2.0,4.0,34,0.00,,,0.00,132,weatherlink.com 1.10,2013-01-12 21:32:00,
2013-01-12 14:47:00,10.8,-12.0,30.14,WNW,292,0.0,6.0,35,0.00,,,0.00,151,weatherlink.com 1.10,2013-01-12 21:47:00,
2013-01-12 15:02:00,10.6,-9.0,30.14,WNW,298,3.0,6.0,40,0.00,,,0.00,158,weatherlink.com 1.10,2013-01-12 22:02:00,
2013-01-12 15:17:00,10.8,-9.0,30.14,West,267,0.0,3.0,40,0.00,,,0.00,130,weatherlink.com 1.10,2013-01-12 22:17:00,
2013-01-12 15:32:00,10.2,-11.0,30.14,WSW,240,1.0,9.0,37,0.00,,,0.00,104,weatherlink.com 1.10,2013-01-12 22:32:00,
2013-01-12 15:47:00,9.9,-11.0,30.14,West,259,0.0,5.0,39,0.00,,,0.00,104,weatherlink.com 1.10,2013-01-12 22:47:00,
2013-01-12 16:02:00,9.9,-10.0,30.15,West,273,1.0,3.0,40,0.00,,,0.00,84,weatherlink.com 1.10,2013-01-12 23:02:00,
2013-01-12 16:17:00,8.9,-11.0,30.15,West,268,0.0,3.0,40,0.00,,,0.00,63,weatherlink.com 1.10,2013-01-12 23:17:00,
2013-01-12 16:32:00,8.3,-11.0,30.15,WSW,250,0.0,3.0,42,0.00,,,0.00,46,weatherlink.com 1.10,2013-01-12 23:32:00,
2013-01-12 16:47:00,8.5,-9.0,30.15,West,273,1.0,5.0,44,0.00,,,0.00,30,weatherlink.com 1.10,2013-01-12 23:47:00,
2013-01-12 17:03:00,7.7,-9.0,30.16,SW,231,2.0,4.0,46,0.00,,,0.00,9,weatherlink.com 1.10,2013-01-13 00:03:00,
2013-01-12 17:18:00,7.0,-8.0,30.17,WSW,255,1.0,3.0,50,0.00,,,0.00,0,weatherlink.com 1.10,2013-01-13 00:18:00,
2013-01-12 17:33:00,6.7,-8.0,30.17,WSW,244,0.0,5.0,50,0.00,,,0.00,0,weatherlink.com 1.10,2013-01-13 00:33:00,
2013-01-12 17:48:00,6.3,-8.0,30.18,WSW,240,0.0,0.0,53,0.00,,,0.00,0,weatherlink.com 1.10,2013-01-13 00:48:00,
2013-01-12 18:03:00,6.0,-7.0,30.18,SW,234,0.0,1.0,56,0.00,,,0.00,0,weatherlink.com 1.10,2013-01-13 01:03:00,
2013-01-12 18:18:00,5.6,-6.0,30.18,SW,225,0.0,1.0,60,0.00,,,0.00,0,weatherlink.com 1.10,2013-01-13 01:18:00,
2013-01-12 18:33:00,5.2,-5.0,30.19,WNW,290,0.0,1.0,63,0.00,,,0.00,0,weatherlink.com 1.10,2013-01-13 01:33:00,
2013-01-12 18:48:00,4.9,-5.0,30.19,SW,217,0.0,1.0,65,0.00,,,0.00,0,weatherlink.com 1.10,2013-01-13 01:48:00,
2013-01-12 19:03:00,4.4,-5.0,30.19,South,187,0.0,0.0,66,0.00,,,0.00,0,weatherlink.com 1.10,2013-01-13 02:03:00,
2013-01-12 19:18:00,4.2,-5.0,30.19,South,187,0.0,0.0,66,0.00,,,0.00,0,weatherlink.com 1.10,2013-01-13 02:18:00,
2013-01-12 19:33:00,3.7,-6.0,30.19,South,173,0.0,0.0,65,0.00,,,0.00,0,weatherlink.com 1.10,2013-01-13 02:33:00,
2013-01-12 19:48:00,2.6,-6.0,30.19,South,173,0.0,0.0,66,0.00,,,0.00,0,weatherlink.com 1.10,2013-01-13 02:48:00,
2013-01-12 20:03:00,1.3,-7.0,30.20,South,171,0.0,0.0,67,0.00,,,0.00,0,weatherlink.com 1.10,2013-01-13 03:03:00,
2013-01-12 20:18:00,1.9,-6.0,30.20,WNW,292,0.0,1.0,69,0.00,,,0.00,0,weatherlink.com 1.10,2013-01-13 03:18:00,
2013-01-12 20:34:00,0.2,-7.0,30.21,WNW,292,0.0,0.0,72,0.00,,,0.00,0,weatherlink.com 1.10,2013-01-13 03:34:00,
2013-01-12 20:49:00,-0.8,-8.0,30.22,WNW,292,0.0,0.0,73,0.00,,,0.00,0,weatherlink.com 1.10,2013-01-13 03:49:00,
2013-01-12 21:04:00,-1.0,-8.0,30.23,WNW,292,0.0,0.0,73,0.00,,,0.00,0,weatherlink.com 1.10,2013-01-13 04:04:00,
2013-01-12 21:19:00,0.5,-7.0,30.23,WNW,292,0.0,0.0,70,0.00,,,0.00,0,weatherlink.com 1.10,2013-01-13 04:19:00,
2013-01-12 21:34:00,1.2,-7.0,30.23,West,270,1.0,1.0,68,0.00,,,0.00,0,weatherlink.com 1.10,2013-01-13 04:34:00,
2013-01-12 21:49:00,-0.9,-8.0,30.23,West,270,0.0,0.0,71,0.00,,,0.00,0,weatherlink.com 1.10,2013-01-13 04:49:00,
2013-01-12 22:04:00,-0.2,-8.0,30.24,West,268,0.0,1.0,69,0.00,,,0.00,0,weatherlink.com 1.10,2013-01-13 05:04:00,
2013-01-12 22:19:00,-0.9,-8.0,30.24,NW,305,0.0,1.0,71,0.00,,,0.00,0,weatherlink.com 1.10,2013-01-13 05:19:00,
2013-01-12 22:34:00,-0.9,-8.0,30.24,NW,305,0.0,0.0,72,0.00,,,0.00,0,weatherlink.com 1.10,2013-01-13 05:34:00,
2013-01-12 22:49:00,-1.3,-9.0,30.24,NW,305,0.0,0.0,71,0.00,,,0.00,0,weatherlink.com 1.10,2013-01-13 05:49:00,
2013-01-12 23:04:00,-2.3,-9.0,30.24,NW,305,0.0,0.0,73,0.00,,,0.00,0,weatherlink.com 1.10,2013-01-13 06:04:00,
2013-01-12 23:19:00,-3.1,-9.0,30.24,NW,305,0.0,0.0,75,0.00,,,0.00,0,weatherlink.com 1.10,2013-01-13 06:19:00,
2013-01-12 23:34:00,-3.0,-9.0,30.24,NW,305,0.0,0.0,75,0.00,,,0.00,0,weatherlink.com 1.10,2013-01-13 06:34:00,
2013-01-12 23:50:00,-3.0,-9.0,30.24,NW,305,0.0,0.0,75,0.00,,,0.00,0,weatherlink.com 1.10,2013-01-13 06:50:00,